createdAt,value
2018-07-26T00:00:35.138Z,22.23
2018-07-26T00:03:06.169Z,19.57
2018-07-26T00:05:37.370Z,22.40
2018-07-26T00:08:08.369Z,21.27
2018-07-26T00:10:39.267Z,21.17
2018-07-26T00:13:10.636Z,20.07
2018-07-26T00:15:41.727Z,21.60
2018-07-26T00:18:12.714Z,18.70
2018-07-26T00:20:43.514Z,18.73
2018-07-26T00:23:14.706Z,18.83
2018-07-26T00:25:45.721Z,22.23
2018-07-26T00:28:17.232Z,23.57
2018-07-26T00:30:48.453Z,19.93
2018-07-26T00:33:19.171Z,19.70
2018-07-26T00:35:50.087Z,18.80
2018-07-26T00:38:20.862Z,23.63
2018-07-26T00:40:51.663Z,23.50
2018-07-26T00:43:22.666Z,20.60
2018-07-26T00:45:53.759Z,17.37
2018-07-26T00:48:25.612Z,25.93
2018-07-26T00:50:56.625Z,19.20
2018-07-26T00:53:27.592Z,18.93
2018-07-26T00:55:59.419Z,21.60
2018-07-26T00:58:30.505Z,19.27
2018-07-26T01:01:01.328Z,18.17
2018-07-26T01:03:32.382Z,19.53
2018-07-26T01:06:03.228Z,18.40
2018-07-26T01:08:34.034Z,20.63
2018-07-26T01:11:04.895Z,21.03
2018-07-26T01:13:35.716Z,18.60
2018-07-26T01:16:06.549Z,25.30
2018-07-26T01:18:38.319Z,23.60
2018-07-26T01:21:09.200Z,26.10
2018-07-26T01:23:40.565Z,24.27
2018-07-26T01:26:12.100Z,22.50
2018-07-26T01:28:43.840Z,30.10
2018-07-26T01:31:14.749Z,25.40
2018-07-26T01:33:45.729Z,21.47
2018-07-26T01:36:16.862Z,20.93
2018-07-26T01:38:47.773Z,21.97
2018-07-26T01:41:18.865Z,22.10
2018-07-26T01:44:00.420Z,24.03
2018-07-26T01:46:31.329Z,27.40
2018-07-26T01:49:03.027Z,25.03
2018-07-26T01:51:33.685Z,21.47
2018-07-26T01:54:04.752Z,21.83
2018-07-26T01:56:35.579Z,30.07
2018-07-26T01:59:07.453Z,23.60
2018-07-26T02:01:38.582Z,21.67
2018-07-26T02:04:09.694Z,25.27
2018-07-26T02:06:40.679Z,21.87
2018-07-26T02:09:12.599Z,18.27
2018-07-26T02:11:43.940Z,22.00
2018-07-26T02:14:19.844Z,20.50
2018-07-26T02:16:50.691Z,24.33
2018-07-26T02:19:21.898Z,25.13
2018-07-26T02:21:53.138Z,18.70
2018-07-26T02:24:24.131Z,20.93
2018-07-26T02:26:55.128Z,20.90
2018-07-26T02:29:26.752Z,24.50
2018-07-26T02:31:59.144Z,16.87
2018-07-26T02:34:30.231Z,19.50
2018-07-26T02:37:03.278Z,15.77
2018-07-26T02:39:35.273Z,16.50
2018-07-26T02:42:06.425Z,27.77
2018-07-26T02:44:37.527Z,17.37
2018-07-26T02:47:08.515Z,16.17
2018-07-26T02:49:39.510Z,16.20
2018-07-26T02:52:10.615Z,14.77
2018-07-26T02:54:41.409Z,14.80
2018-07-26T02:57:12.630Z,14.97
2018-07-26T02:59:44.480Z,17.00
2018-07-26T03:02:17.030Z,14.83
2018-07-26T03:04:48.270Z,15.10
2018-07-26T03:07:19.259Z,16.20
2018-07-26T03:09:50.253Z,15.43
2018-07-26T03:12:21.475Z,19.43
2018-07-26T03:14:52.359Z,16.23
2018-07-26T03:17:24.241Z,13.30
2018-07-26T03:19:56.533Z,21.63
2018-07-26T03:22:27.733Z,14.63
2018-07-26T03:24:58.938Z,19.40
2018-07-26T03:27:30.237Z,17.13
2018-07-26T03:30:02.204Z,20.10
2018-07-26T03:32:33.505Z,16.27
2018-07-26T03:35:04.828Z,17.17
2018-07-26T03:37:36.093Z,16.70
2018-07-26T03:40:08.251Z,24.20
2018-07-26T03:42:39.408Z,19.13
2018-07-26T03:45:10.456Z,14.80
2018-07-26T03:47:43.217Z,12.47
2018-07-26T03:50:14.413Z,15.43
2018-07-26T03:52:45.313Z,16.90
2018-07-26T03:55:16.292Z,15.10
2018-07-26T03:57:47.730Z,13.23
2018-07-26T04:00:19.524Z,14.30
2018-07-26T04:02:50.665Z,14.10
2018-07-26T04:05:21.732Z,13.30
2018-07-26T04:07:54.257Z,13.80
2018-07-26T04:10:25.822Z,14.13
2018-07-26T04:12:56.524Z,12.80
2018-07-26T04:15:28.712Z,13.03
2018-07-26T04:18:05.392Z,14.10
2018-07-26T04:20:36.542Z,12.93
2018-07-26T04:23:08.570Z,12.40
2018-07-26T04:25:39.631Z,14.50
2018-07-26T04:28:10.461Z,21.23
2018-07-26T04:30:43.143Z,12.97
2018-07-26T04:33:13.987Z,14.20
2018-07-26T04:35:45.314Z,14.93
2018-07-26T04:38:16.131Z,17.20
2018-07-26T04:40:47.285Z,14.63
2018-07-26T04:43:18.151Z,13.17
2018-07-26T04:45:49.259Z,16.80
2018-07-26T04:48:20.141Z,15.10
2018-07-26T04:50:51.874Z,12.87
2018-07-26T04:53:24.246Z,13.40
2018-07-26T04:55:55.371Z,16.23
2018-07-26T04:58:26.250Z,13.93
2018-07-26T05:00:58.149Z,12.97
2018-07-26T05:03:29.273Z,13.00
2018-07-26T05:06:00.321Z,14.33
2018-07-26T05:08:31.438Z,13.77
2018-07-26T05:11:02.437Z,12.33
2018-07-26T05:13:33.384Z,12.30
2018-07-26T05:16:04.415Z,18.47
2018-07-26T05:18:35.428Z,14.67
2018-07-26T05:21:06.334Z,13.53
2018-07-26T05:23:37.428Z,12.80
2018-07-26T05:26:09.788Z,12.13
2018-07-26T05:28:40.900Z,12.03
2018-07-26T05:33:57.614Z,11.93
2018-07-26T05:36:28.619Z,12.30
2018-07-26T05:38:59.743Z,12.67
2018-07-26T05:41:30.991Z,12.57
2018-07-26T05:44:02.059Z,15.93
2018-07-26T05:46:33.253Z,14.07
2018-07-26T05:49:04.425Z,12.27
2018-07-26T05:51:35.412Z,12.33
2018-07-26T05:54:06.717Z,12.80
2018-07-26T05:56:37.854Z,12.63
2018-07-26T05:59:10.877Z,14.20
2018-07-26T06:01:42.658Z,14.17
2018-07-26T06:04:14.744Z,12.93
2018-07-26T06:06:46.190Z,13.30
2018-07-26T06:09:17.140Z,11.20
2018-07-26T06:11:48.380Z,13.20
2018-07-26T06:14:19.503Z,11.53
2018-07-26T06:16:51.512Z,10.67
2018-07-26T06:19:22.356Z,11.00
2018-07-26T06:21:53.597Z,11.13
2018-07-26T06:24:24.379Z,11.60
2018-07-26T06:26:55.846Z,12.07
2018-07-26T06:29:27.088Z,11.40
2018-07-26T06:31:59.033Z,11.97
2018-07-26T06:34:30.036Z,11.87
2018-07-26T06:37:01.406Z,12.93
2018-07-26T06:39:32.640Z,11.70
2018-07-26T06:42:04.682Z,13.50
2018-07-26T06:44:35.824Z,13.13
2018-07-26T06:47:08.022Z,14.47
2018-07-26T06:49:39.114Z,13.70
2018-07-26T06:52:10.111Z,12.93
2018-07-26T06:54:41.057Z,13.70
2018-07-26T06:57:12.105Z,14.23
2018-07-26T06:59:46.092Z,14.97
2018-07-26T07:02:17.996Z,14.17
2018-07-26T07:04:49.406Z,13.20
2018-07-26T07:07:20.670Z,15.80
2018-07-26T07:09:51.975Z,13.50
2018-07-26T07:12:22.961Z,14.53
2018-07-26T07:14:54.393Z,14.50
2018-07-26T07:17:26.259Z,14.07
2018-07-26T07:19:57.714Z,13.37
2018-07-26T07:22:28.834Z,13.37
2018-07-26T07:24:59.565Z,16.50
2018-07-26T07:27:30.720Z,13.63
2018-07-26T07:30:03.355Z,13.23
2018-07-26T07:32:35.427Z,18.27
2018-07-26T07:35:06.704Z,20.30
2018-07-26T07:37:38.317Z,13.67
2018-07-26T07:40:10.179Z,12.53
2018-07-26T07:42:41.269Z,12.70
2018-07-26T07:45:12.517Z,13.73
2018-07-26T07:47:43.748Z,14.40
2018-07-26T07:50:14.859Z,14.70
2018-07-26T07:52:45.924Z,13.90
2018-07-26T07:55:18.843Z,12.10
2018-07-26T07:57:50.742Z,13.50
2018-07-26T08:00:21.793Z,17.80
2018-07-26T08:02:55.334Z,11.80
2018-07-26T08:05:26.614Z,12.90
2018-07-26T08:07:58.528Z,11.77
2018-07-26T08:10:30.597Z,11.20
2018-07-26T08:13:02.021Z,16.60
2018-07-26T08:15:33.146Z,11.80
2018-07-26T08:18:04.403Z,11.83
2018-07-26T08:20:35.586Z,12.30
2018-07-26T08:23:06.945Z,11.93
2018-07-26T08:25:38.036Z,12.23
2018-07-26T08:28:09.886Z,13.77
2018-07-26T08:30:40.890Z,12.17
2018-07-26T08:33:12.395Z,13.40
2018-07-26T08:35:43.456Z,11.80
2018-07-26T08:38:14.911Z,12.57
2018-07-26T08:40:46.045Z,12.23
2018-07-26T08:43:17.177Z,12.63
2018-07-26T08:45:48.196Z,12.20
2018-07-26T08:48:19.604Z,13.20
2018-07-26T08:50:51.594Z,13.60
2018-07-26T08:53:22.752Z,11.13
2018-07-26T08:55:53.998Z,15.50
2018-07-26T08:58:25.186Z,11.93
2018-07-26T09:00:57.329Z,14.20
2018-07-26T09:03:28.176Z,11.70
2018-07-26T09:05:59.326Z,12.97
2018-07-26T09:08:30.847Z,11.93
2018-07-26T09:11:02.718Z,14.53
2018-07-26T09:13:33.995Z,13.00
2018-07-26T09:16:05.780Z,13.83
2018-07-26T09:18:36.790Z,12.90
2018-07-26T09:21:08.601Z,11.67
2018-07-26T09:23:39.498Z,14.33
2018-07-26T09:26:10.841Z,12.33
2018-07-26T09:28:41.978Z,13.30
2018-07-26T09:31:13.332Z,12.80
2018-07-26T09:33:44.744Z,13.07
2018-07-26T09:36:16.033Z,12.63
2018-07-26T09:38:47.280Z,12.53
2018-07-26T09:41:19.634Z,12.57
2018-07-26T09:43:50.808Z,21.90
2018-07-26T09:46:22.233Z,13.33
2018-07-26T09:48:53.466Z,12.13
2018-07-26T09:51:25.281Z,11.53
2018-07-26T09:53:56.528Z,12.10
2018-07-26T09:56:27.549Z,11.70
2018-07-26T09:58:58.837Z,11.00
2018-07-26T10:01:31.872Z,19.97
2018-07-26T10:04:03.533Z,11.73
2018-07-26T10:06:36.843Z,11.73
2018-07-26T10:09:12.925Z,10.40
2018-07-26T10:11:44.522Z,11.23
2018-07-26T10:14:16.027Z,12.87
2018-07-26T10:16:46.997Z,12.90
2018-07-26T10:19:17.932Z,11.90
2018-07-26T10:21:48.962Z,11.90
2018-07-26T10:24:20.090Z,11.73
2018-07-26T10:26:52.231Z,11.07
2018-07-26T10:29:24.548Z,11.93
2018-07-26T10:31:55.848Z,11.70
2018-07-26T10:34:26.791Z,14.23
2018-07-26T10:36:58.015Z,11.60
2018-07-26T10:39:29.754Z,11.97
2018-07-26T10:42:00.767Z,12.03
2018-07-26T10:44:31.677Z,12.53
2018-07-26T10:47:03.728Z,12.03
2018-07-26T10:49:41.645Z,11.20
2018-07-26T10:52:13.788Z,11.10
2018-07-26T10:54:44.679Z,11.27
2018-07-26T10:57:15.985Z,14.23
2018-07-26T10:59:47.057Z,11.23
2018-07-26T11:02:18.449Z,13.80
2018-07-26T11:04:49.524Z,11.40
2018-07-26T11:07:20.685Z,12.07
2018-07-26T11:09:51.808Z,11.97
2018-07-26T11:12:22.750Z,10.67
2018-07-26T11:14:55.102Z,10.63
2018-07-26T11:17:25.924Z,9.90
2018-07-26T11:19:56.945Z,10.53
2018-07-26T11:22:28.243Z,10.87
2018-07-26T11:25:00.126Z,10.53
2018-07-26T11:27:31.198Z,10.10
2018-07-26T11:30:05.263Z,10.33
2018-07-26T11:32:36.690Z,10.43
2018-07-26T11:35:09.239Z,10.63
2018-07-26T11:37:41.426Z,10.17
2018-07-26T11:40:12.798Z,9.77
2018-07-26T11:42:44.123Z,11.17
2018-07-26T11:45:17.068Z,12.50
2018-07-26T11:47:48.342Z,11.03
2018-07-26T11:50:19.900Z,10.23
2018-07-26T11:52:50.943Z,10.60
2018-07-26T11:55:22.235Z,12.33
2018-07-26T11:57:54.636Z,11.70
2018-07-26T12:00:25.731Z,11.47
2018-07-26T12:02:57.551Z,12.17
2018-07-26T12:05:32.633Z,11.17
2018-07-26T12:08:04.024Z,11.90
2018-07-26T12:10:35.928Z,11.57
2018-07-26T12:13:06.927Z,14.10
2018-07-26T12:15:37.977Z,14.20
2018-07-26T12:18:09.322Z,11.47
2018-07-26T12:20:40.577Z,17.77
2018-07-26T12:23:12.633Z,11.83
2018-07-26T12:25:43.856Z,16.23
2018-07-26T12:28:15.348Z,13.10
2018-07-26T12:30:46.456Z,15.17
2018-07-26T12:33:17.944Z,15.70
2018-07-26T12:35:49.968Z,14.90
2018-07-26T12:38:27.287Z,17.00
2018-07-26T12:40:58.757Z,13.00
2018-07-26T12:43:30.813Z,12.20
2018-07-26T12:46:02.336Z,11.30
2018-07-26T12:48:33.531Z,12.10
2018-07-26T12:51:04.665Z,11.60
2018-07-26T12:53:36.613Z,11.87
2018-07-26T12:56:07.893Z,10.90
2018-07-26T12:58:39.350Z,12.73
2018-07-26T13:01:10.615Z,12.13
2018-07-26T13:03:45.753Z,11.80
2018-07-26T13:06:19.530Z,10.93
2018-07-26T13:08:51.843Z,12.20
2018-07-26T13:11:28.711Z,12.07
2018-07-26T13:14:00.599Z,12.23
2018-07-26T13:16:31.655Z,12.00
2018-07-26T13:19:03.282Z,11.13
2018-07-26T13:21:47.977Z,11.87
2018-07-26T13:24:26.081Z,11.80
2018-07-26T13:26:57.996Z,11.40
2018-07-26T13:29:30.741Z,11.10
2018-07-26T13:32:01.957Z,10.97
2018-07-26T13:34:32.917Z,10.50
2018-07-26T13:37:03.960Z,11.40
2018-07-26T13:39:35.838Z,10.40
2018-07-26T13:42:07.666Z,10.93
2018-07-26T13:44:39.073Z,10.90
2018-07-26T13:47:10.297Z,11.27
2018-07-26T13:49:41.822Z,12.70
2018-07-26T13:52:12.710Z,11.50
2018-07-26T13:54:46.357Z,10.17
2018-07-26T13:57:17.857Z,14.23
2018-07-26T13:59:49.516Z,10.60
2018-07-26T14:02:20.669Z,10.33
2018-07-26T14:04:52.879Z,11.20
2018-07-26T14:07:24.194Z,10.60
2018-07-26T14:09:55.556Z,10.67
2018-07-26T14:12:26.709Z,11.30
2018-07-26T14:14:58.096Z,10.97
2018-07-26T14:17:29.205Z,11.37
2018-07-26T14:20:00.354Z,11.63
2018-07-26T14:22:31.573Z,12.00
2018-07-26T14:25:02.829Z,12.07
2018-07-26T14:27:33.966Z,12.63
2018-07-26T14:30:06.135Z,12.70
2018-07-26T14:32:38.932Z,13.60
2018-07-26T14:35:10.000Z,13.00
2018-07-26T14:37:41.400Z,13.70
2018-07-26T14:40:12.504Z,14.20
2018-07-26T14:42:44.008Z,14.90
2018-07-26T14:45:16.263Z,16.60
2018-07-26T14:47:47.944Z,16.33
2018-07-26T14:50:19.342Z,15.40
2018-07-26T14:52:50.943Z,8.97
2018-07-26T14:55:22.498Z,13.60
2018-07-26T14:57:54.888Z,15.27
2018-07-26T15:00:26.228Z,36.83
2018-07-26T15:03:02.098Z,17.37
2018-07-26T15:05:33.484Z,14.83
2018-07-26T15:08:05.123Z,19.97
2018-07-26T15:10:36.962Z,23.10
2018-07-26T15:13:09.274Z,24.33
2018-07-26T15:15:44.448Z,19.53
2018-07-26T15:18:15.568Z,16.07
2018-07-26T15:20:46.974Z,13.10
2018-07-26T15:23:18.072Z,10.20
2018-07-26T15:25:49.076Z,15.20
2018-07-26T15:28:20.505Z,16.13
2018-07-26T15:30:53.121Z,13.70
2018-07-26T15:33:24.159Z,26.47
2018-07-26T15:35:55.202Z,12.83
2018-07-26T15:38:26.457Z,22.60
2018-07-26T15:40:59.302Z,26.37
2018-07-26T15:43:30.824Z,10.87
2018-07-26T15:46:01.726Z,9.40
2018-07-26T15:48:32.726Z,14.17
2018-07-26T15:51:04.080Z,18.80
2018-07-26T15:53:35.387Z,14.13
2018-07-26T15:56:06.600Z,17.20
2018-07-26T15:58:37.403Z,15.40
2018-07-26T16:01:08.661Z,17.67
2018-07-26T16:03:39.883Z,21.73
2018-07-26T16:06:10.767Z,20.23
2018-07-26T16:08:41.899Z,22.13
2018-07-26T16:11:13.227Z,19.27
2018-07-26T16:13:44.609Z,21.47
2018-07-26T16:16:16.628Z,23.20
2018-07-26T16:18:48.078Z,22.70
2018-07-26T16:21:19.300Z,21.47
2018-07-26T16:23:51.420Z,23.57
2018-07-26T16:26:23.779Z,24.80
2018-07-26T16:28:54.829Z,25.43
2018-07-26T16:31:26.681Z,26.53
2018-07-26T16:33:59.063Z,26.27
2018-07-26T16:36:30.148Z,27.33
2018-07-26T16:39:01.355Z,29.13
2018-07-26T16:41:32.530Z,33.57
2018-07-26T16:44:03.850Z,40.17
2018-07-26T16:46:36.014Z,34.53
2018-07-26T16:49:08.391Z,35.33
2018-07-26T16:51:40.645Z,37.53
2018-07-26T16:54:13.118Z,29.30
2018-07-26T16:56:44.843Z,28.80
2018-07-26T16:59:15.972Z,26.63
2018-07-26T17:01:47.593Z,25.87
2018-07-26T17:04:19.340Z,23.80
2018-07-26T17:06:51.006Z,27.17
2018-07-26T17:09:22.191Z,21.93
2018-07-26T17:11:54.079Z,22.80
2018-07-26T17:14:26.087Z,24.40
2018-07-26T17:16:58.755Z,22.87
2018-07-26T17:19:32.897Z,24.57
2018-07-26T17:22:04.552Z,27.40
2018-07-26T17:24:36.443Z,26.00
2018-07-26T17:27:08.074Z,28.10
2018-07-26T17:29:42.036Z,29.40
2018-07-26T17:32:13.532Z,28.03
2018-07-26T17:34:45.469Z,32.50
2018-07-26T17:37:18.034Z,30.27
2018-07-26T17:39:50.713Z,29.27
2018-07-26T17:42:22.537Z,28.00
2018-07-26T17:44:53.730Z,27.33
2018-07-26T17:47:24.933Z,29.13
2018-07-26T17:49:56.377Z,29.40
2018-07-26T17:52:27.733Z,29.73
2018-07-26T17:54:59.213Z,34.30
2018-07-26T17:57:32.536Z,32.53
2018-07-26T18:00:06.851Z,37.73
2018-07-26T18:02:38.833Z,28.37
2018-07-26T18:05:11.226Z,26.33
2018-07-26T18:07:42.964Z,28.27
2018-07-26T18:10:14.112Z,27.60
2018-07-26T18:12:46.476Z,28.50
2018-07-26T18:15:19.534Z,28.90
2018-07-26T18:17:52.722Z,24.30
2018-07-26T18:20:25.712Z,28.13
2018-07-26T18:22:56.970Z,24.40
2018-07-26T18:25:30.350Z,26.40
2018-07-26T18:28:01.878Z,30.43
2018-07-26T18:30:38.188Z,24.73
2018-07-26T18:33:10.112Z,23.60
2018-07-26T18:35:41.411Z,24.60
2018-07-26T18:38:14.361Z,25.33
2018-07-26T18:40:46.548Z,25.67
2018-07-26T18:43:18.007Z,23.90
2018-07-26T18:45:49.605Z,24.70
2018-07-26T18:48:21.138Z,28.13
2018-07-26T18:50:53.053Z,29.30
2018-07-26T18:53:24.483Z,24.67
2018-07-26T18:55:56.403Z,22.23
2018-07-26T18:58:29.197Z,26.70
2018-07-26T19:01:00.592Z,23.30
2018-07-26T19:03:31.778Z,24.33
2018-07-26T19:06:04.077Z,27.20
2018-07-26T19:08:36.281Z,23.87
2018-07-26T19:11:08.051Z,26.30
2018-07-26T19:13:39.387Z,23.60
2018-07-26T19:16:12.037Z,23.93
2018-07-26T19:18:44.808Z,25.57
2018-07-26T19:21:17.086Z,28.43
2018-07-26T19:23:49.094Z,26.00
2018-07-26T19:26:20.502Z,25.80
2018-07-26T19:28:52.381Z,27.13
2018-07-26T19:31:25.502Z,29.07
2018-07-26T19:33:56.706Z,29.03
2018-07-26T19:36:28.032Z,28.60
2018-07-26T19:38:59.279Z,31.40
2018-07-26T19:41:31.754Z,26.50
2018-07-26T19:44:06.764Z,27.97
2018-07-26T19:46:41.600Z,25.63
2018-07-26T19:49:13.071Z,25.23
2018-07-26T19:51:43.998Z,28.23
2018-07-26T19:54:17.597Z,29.30
2018-07-26T19:56:49.312Z,27.30
2018-07-26T19:59:20.709Z,26.70
2018-07-26T20:01:51.999Z,30.50
2018-07-26T20:04:25.232Z,28.23
2018-07-26T20:06:56.664Z,31.10
2018-07-26T20:09:28.137Z,28.30
2018-07-26T20:12:00.452Z,30.67
2018-07-26T20:14:31.695Z,36.10
2018-07-26T20:17:03.081Z,31.93
2018-07-26T20:19:35.813Z,29.50
2018-07-26T20:22:07.531Z,33.47
2018-07-26T20:24:40.937Z,27.93
2018-07-26T20:27:12.287Z,28.20
2018-07-26T20:29:43.471Z,27.87
2018-07-26T20:32:22.047Z,29.23
2018-07-26T20:34:53.237Z,26.10
2018-07-26T20:37:24.258Z,30.00
2018-07-26T20:39:55.333Z,24.80
2018-07-26T20:42:28.824Z,28.87
2018-07-26T20:45:02.078Z,26.20
2018-07-26T20:47:33.478Z,29.07
2018-07-26T20:50:08.374Z,26.50
2018-07-26T20:52:40.045Z,34.83
2018-07-26T20:55:11.652Z,27.60
2018-07-26T20:57:43.151Z,28.77
2018-07-26T21:00:15.149Z,27.23
2018-07-26T21:02:46.325Z,29.40
2018-07-26T21:05:18.090Z,26.80
2018-07-26T21:07:50.838Z,31.27
2018-07-26T21:10:23.005Z,35.37
2018-07-26T21:12:54.275Z,32.80
2018-07-26T21:15:25.499Z,26.07
2018-07-26T21:17:56.774Z,30.50
2018-07-26T21:20:28.923Z,28.47
2018-07-26T21:23:00.223Z,26.97
2018-07-26T21:25:32.186Z,25.97
2018-07-26T21:28:03.103Z,26.63
2018-07-26T21:30:34.429Z,25.80
2018-07-26T21:33:06.571Z,26.07
2018-07-26T21:35:37.964Z,24.87
2018-07-26T21:38:09.054Z,28.97
2018-07-26T21:40:40.787Z,28.47
2018-07-26T21:43:12.160Z,27.27
2018-07-26T21:45:43.249Z,29.03
2018-07-26T21:48:15.262Z,27.30
2018-07-26T21:50:46.714Z,24.77
2018-07-26T21:53:17.810Z,28.70
2018-07-26T21:55:51.905Z,32.40
2018-07-26T21:58:23.259Z,28.03
2018-07-26T22:00:59.207Z,32.50
2018-07-26T22:03:31.077Z,29.20
2018-07-26T22:06:02.399Z,32.20
2018-07-26T22:08:35.198Z,28.33
2018-07-26T22:11:12.439Z,24.87
2018-07-26T22:13:43.683Z,28.80
2018-07-26T22:16:14.831Z,32.33
2018-07-26T22:18:45.935Z,26.10
2018-07-26T22:21:17.176Z,30.47
2018-07-26T22:23:48.867Z,33.70
2018-07-26T22:26:20.026Z,30.50
2018-07-26T22:28:51.231Z,26.60
2018-07-26T22:31:22.691Z,31.60
2018-07-26T22:33:53.651Z,29.67
2018-07-26T22:36:25.167Z,31.00
2018-07-26T22:38:56.010Z,31.63
2018-07-26T22:41:27.099Z,33.10
2018-07-26T22:43:58.291Z,28.63
2018-07-26T22:46:29.374Z,28.70
2018-07-26T22:49:00.332Z,28.90
2018-07-26T22:51:32.078Z,30.50
2018-07-26T22:54:03.976Z,29.13
2018-07-26T22:56:35.354Z,30.63
2018-07-26T22:59:06.312Z,29.00
2018-07-26T23:01:37.643Z,28.00
2018-07-26T23:04:09.017Z,32.30
2018-07-26T23:06:40.084Z,30.73
2018-07-26T23:09:12.698Z,30.57
2018-07-26T23:11:44.322Z,25.33
2018-07-26T23:14:15.615Z,26.90
2018-07-26T23:16:46.944Z,27.13
2018-07-26T23:19:18.723Z,31.43
2018-07-26T23:21:52.357Z,26.50
2018-07-26T23:24:23.401Z,26.03
2018-07-26T23:26:54.434Z,26.97
2018-07-26T23:29:26.520Z,27.70
2018-07-26T23:31:57.556Z,24.73
2018-07-26T23:34:29.301Z,28.13
2018-07-26T23:37:02.110Z,25.63
2018-07-26T23:39:33.192Z,24.13
2018-07-26T23:42:05.263Z,24.60
2018-07-26T23:44:36.418Z,25.60
2018-07-26T23:47:07.682Z,26.10
2018-07-26T23:49:38.655Z,23.90
2018-07-26T23:52:09.847Z,25.40
2018-07-26T23:54:40.710Z,25.63
2018-07-26T23:57:12.799Z,29.27
2018-07-26T23:59:44.389Z,21.60
